Time;durP1;ratioP1;P1;durP2;ratioP2;P2;SDS_P1;SDS_P2;PMS_P1;PMS_P2;Temp;Humidity;BMP_temperature;BMP_pressure;BME280_temperature;BME280_humidity;BME280_pressure;Samples;Min_cycle;Max_cycle;Signal;HPM_P1;HPM_P2
2022/07/24 00:02:20;;;;;;;0.10;0.10;;;;;;;19.59;75.67;100188.91;7359110;19;20011;-63
2022/07/24 00:04:46;;;;;;;0.00;0.00;;;;;;;19.56;76.44;100193.53;7352928;19;20006;-63
2022/07/24 00:07:11;;;;;;;0.10;0.10;;;;;;;19.51;76.05;100179.75;7351511;19;20552;-62
2022/07/24 00:09:37;;;;;;;0.05;0.05;;;;;;;19.54;76.46;100191.00;7354643;19;20106;-63
2022/07/24 00:12:03;;;;;;;0.00;0.00;;;;;;;19.52;76.05;100192.91;7352411;19;20007;-62
2022/07/24 00:14:28;;;;;;;0.00;0.00;;;;;;;19.51;76.02;100185.06;7356496;19;20438;-63
2022/07/24 00:16:54;;;;;;;0.10;0.10;;;;;;;19.50;76.04;100176.25;7353221;19;19998;-62
2022/07/24 00:19:19;;;;;;;0.05;0.05;;;;;;;19.48;75.42;100183.47;7355823;19;20018;-63
2022/07/24 00:21:44;;;;;;;0.08;0.08;;;;;;;19.48;75.68;100180.00;7353896;19;20034;-63
2022/07/24 00:24:10;;;;;;;0.00;0.00;;;;;;;19.45;75.16;100196.91;7354652;19;20006;-63
2022/07/24 00:26:35;;;;;;;0.00;0.00;;;;;;;19.45;75.54;100192.47;7354106;19;20014;-63
2022/07/24 00:29:01;;;;;;;0.10;0.10;;;;;;;19.44;75.06;100198.72;7364494;19;20111;-63
2022/07/24 00:31:26;;;;;;;0.00;0.00;;;;;;;19.43;75.09;100189.09;7364022;19;20011;-64
2022/07/24 00:33:52;;;;;;;0.10;0.10;;;;;;;19.43;75.94;100199.69;7362954;19;20010;-64
2022/07/24 00:36:17;;;;;;;0.10;0.10;;;;;;;19.42;75.75;100192.69;7364301;19;20006;-63
2022/07/24 00:38:43;;;;;;;0.10;0.10;;;;;;;19.41;76.25;100196.28;7362489;19;20006;-63
2022/07/24 00:41:09;;;;;;;0.00;0.00;;;;;;;19.40;75.99;100205.16;7364224;19;20070;-63
2022/07/24 00:43:34;;;;;;;0.10;0.10;;;;;;;19.41;75.31;100201.59;7360520;19;20359;-64
2022/07/24 00:46:00;;;;;;;0.00;0.00;;;;;;;19.39;75.77;100192.88;7361377;19;20010;-63
2022/07/24 00:48:25;;;;;;;0.00;0.00;;;;;;;19.35;75.77;100175.50;7361768;19;20003;-63
2022/07/24 00:50:51;;;;;;;0.10;0.10;;;;;;;19.41;75.55;100180.41;7364687;19;20021;-63
2022/07/24 00:53:17;;;;;;;0.10;0.10;;;;;;;19.39;75.19;100169.06;7364578;19;20017;-63
2022/07/24 00:55:43;;;;;;;0.00;0.00;;;;;;;19.42;75.27;100184.75;7361940;19;20016;-63
2022/07/24 00:58:08;;;;;;;0.00;0.00;;;;;;;19.40;75.72;100173.38;7363573;19;20010;-63
2022/07/24 01:00:34;;;;;;;0.10;0.10;;;;;;;19.34;75.44;100151.78;7360835;19;20013;-62
2022/07/24 01:02:59;;;;;;;0.10;0.10;;;;;;;19.42;75.96;100176.81;7363763;19;20536;-63
2022/07/24 01:05:25;;;;;;;0.00;0.00;;;;;;;19.44;75.17;100174.88;7362652;19;20054;-62
2022/07/24 01:07:50;;;;;;;0.00;0.00;;;;;;;19.41;75.18;100172.47;7361847;19;20011;-64
2022/07/24 01:10:15;;;;;;;0.10;0.10;;;;;;;19.45;75.24;100171.28;7363741;19;20037;-63
2022/07/24 01:12:41;;;;;;;0.08;0.08;;;;;;;19.39;74.99;100161.13;7361598;19;20632;-63
2022/07/24 01:15:09;;;;;;;0.10;0.10;;;;;;;19.47;75.81;100171.19;7360624;19;20014;-63
2022/07/24 01:17:37;;;;;;;0.10;0.10;;;;;;;19.48;75.69;100174.69;7363957;19;20007;-64
2022/07/24 01:20:04;;;;;;;0.10;0.10;;;;;;;19.48;75.21;100180.00;7362261;19;20411;-63
2022/07/24 01:22:29;;;;;;;;;;;;;;;19.52;74.18;100173.53;7363756;19;20010;-63
2022/07/24 01:24:55;;;;;;;0.00;0.00;;;;;;;19.48;74.97;100182.63;7361998;19;20035;-63
2022/07/24 01:27:22;;;;;;;0.10;0.10;;;;;;;19.48;75.24;100186.13;7363671;19;20733;-63
2022/07/24 01:29:48;;;;;;;0.00;0.00;;;;;;;19.46;75.36;100182.72;7360813;19;20952;-63
2022/07/24 01:32:13;;;;;;;0.10;0.10;;;;;;;19.46;74.90;100177.41;7362221;19;20566;-63
2022/07/24 01:34:39;;;;;;;0.00;0.00;;;;;;;19.49;75.25;100176.38;7363218;19;20751;-63
2022/07/24 01:37:04;;;;;;;0.10;0.10;;;;;;;19.48;75.08;100169.41;7363562;19;20463;-63
2022/07/24 01:39:30;;;;;;;0.00;0.00;;;;;;;19.47;75.22;100173.00;7359068;19;20019;-63
2022/07/24 01:41:55;;;;;;;0.10;0.10;;;;;;;19.45;75.02;100165.97;7362850;19;20490;-63
2022/07/24 01:44:21;;;;;;;0.03;0.03;;;;;;;19.44;75.07;100174.88;7361073;19;20015;-64
2022/07/24 01:46:46;;;;;;;0.10;0.10;;;;;;;19.45;73.91;100165.97;7362315;19;20010;-64
2022/07/24 01:49:12;;;;;;;0.10;0.10;;;;;;;19.44;74.82;100187.28;7357873;19;20021;-63
2022/07/24 01:51:37;;;;;;;0.00;0.00;;;;;;;19.42;75.11;100189.19;7363039;19;20014;-64
2022/07/24 01:54:03;;;;;;;0.10;0.10;;;;;;;19.42;74.31;100197.13;7361270;19;20832;-63
2022/07/24 01:56:30;;;;;;;0.00;0.00;;;;;;;19.41;74.84;100204.25;7360277;19;20661;-62
2022/07/24 01:58:55;;;;;;;0.05;0.05;;;;;;;19.38;75.83;100200.94;7352431;19;20021;-64
2022/07/24 02:01:20;;;;;;;0.10;0.10;;;;;;;19.39;74.82;100206.13;7363246;19;20014;-63
2022/07/24 02:03:46;;;;;;;0.10;0.10;;;;;;;19.39;74.54;100198.19;7360786;19;20070;-63
2022/07/24 02:06:12;;;;;;;0.10;0.10;;;;;;;19.37;74.56;100196.59;7360516;19;20014;-63
2022/07/24 02:08:37;;;;;;;0.10;0.10;;;;;;;19.34;75.11;100200.28;7360999;19;20025;-63
2022/07/24 02:11:03;;;;;;;0.10;0.10;;;;;;;19.29;75.02;100206.84;7361970;19;20082;-63
2022/07/24 02:13:28;;;;;;;0.10;0.10;;;;;;;19.24;74.39;100199.22;7359484;19;20030;-63
2022/07/24 02:15:54;;;;;;;0.08;0.08;;;;;;;19.21;74.65;100204.72;7363037;19;20010;-64
2022/07/24 02:18:19;;;;;;;0.08;0.08;;;;;;;19.18;74.95;100210.22;7360620;19;20046;-63
2022/07/24 02:20:44;;;;;;;0.10;0.10;;;;;;;19.12;74.91;100200.03;7362960;19;20024;-63
2022/07/24 02:23:10;;;;;;;0.10;0.10;;;;;;;19.07;75.34;100196.84;7360928;19;20022;-62
2022/07/24 02:25:35;;;;;;;0.10;0.10;;;;;;;19.03;74.91;100200.63;7360610;19;20716;-63
2022/07/24 02:28:01;;;;;;;0.00;0.00;;;;;;;18.98;76.25;100208.03;7360783;19;20090;-64
2022/07/24 02:30:26;;;;;;;0.10;0.10;;;;;;;18.93;75.36;100205.69;7368483;19;20018;-63
2022/07/24 02:32:52;;;;;;;0.00;0.00;;;;;;;18.89;75.16;100199.72;7364122;19;20022;-63
2022/07/24 02:35:17;;;;;;;0.00;0.00;;;;;;;18.85;75.19;100192.94;7367860;19;20505;-63
2022/07/24 02:37:44;;;;;;;0.10;0.10;;;;;;;18.80;74.47;100204.75;7367629;19;20049;-63
2022/07/24 02:40:11;;;;;;;0.00;0.00;;;;;;;18.78;74.59;100196.94;7367365;19;20031;-63
2022/07/24 02:42:37;;;;;;;0.10;0.10;;;;;;;18.74;74.55;100200.72;7368011;19;20572;-63
2022/07/24 02:45:04;;;;;;;0.10;0.10;;;;;;;18.72;74.32;100197.34;7365021;19;20649;-63
2022/07/24 02:47:30;;;;;;;0.10;0.10;;;;;;;18.69;74.41;100208.09;7368310;19;20350;-64
2022/07/24 02:49:56;;;;;;;0.10;0.10;;;;;;;18.65;74.76;100206.56;7365675;19;20014;-63
2022/07/24 02:52:21;;;;;;;0.10;0.10;;;;;;;18.57;74.61;100198.28;7367595;19;20018;-64
2022/07/24 02:54:47;;;;;;;0.10;0.10;;;;;;;18.60;75.37;100201.59;7368704;19;20010;-64
2022/07/24 02:57:13;;;;;;;0.05;0.05;;;;;;;18.58;75.37;100215.84;7367915;19;20011;-63
2022/07/24 02:59:38;;;;;;;0.10;0.10;;;;;;;18.56;75.53;100201.88;7368280;19;20010;-63
2022/07/24 03:02:03;;;;;;;0.03;0.03;;;;;;;18.56;75.50;100204.53;7363932;19;20021;-63
2022/07/24 03:04:29;;;;;;;0.00;0.00;;;;;;;18.54;76.11;100201.97;7356461;19;20705;-63
2022/07/24 03:06:54;;;;;;;0.10;0.10;;;;;;;18.54;75.79;100209.06;7367210;19;20808;-64
2022/07/24 03:09:20;;;;;;;0.08;0.08;;;;;;;18.55;75.28;100205.47;7369411;19;20015;-63
2022/07/24 03:11:45;;;;;;;0.00;0.00;;;;;;;18.54;75.97;100203.75;7368379;19;20030;-64
2022/07/24 03:14:10;;;;;;;0.00;0.00;;;;;;;18.56;74.78;100197.44;7368829;19;20014;-63
2022/07/24 03:16:37;;;;;;;0.05;0.05;;;;;;;18.56;75.43;100188.66;7368199;19;20014;-63
2022/07/24 03:19:02;;;;;;;0.00;0.00;;;;;;;18.58;74.93;100194.69;7361661;19;20021;-64
2022/07/24 03:21:28;;;;;;;0.08;0.08;;;;;;;18.60;74.81;100208.66;7357820;19;20011;-64
2022/07/24 03:23:53;;;;;;;0.10;0.10;;;;;;;18.63;74.82;100197.91;7363483;19;20022;-63
2022/07/24 03:26:18;;;;;;;0.10;0.10;;;;;;;18.57;75.19;100171.84;7364921;19;20013;-63
2022/07/24 03:28:44;;;;;;;0.00;0.00;;;;;;;18.65;75.49;100185.41;7363863;19;20014;-63
2022/07/24 03:31:09;;;;;;;0.00;0.00;;;;;;;18.62;75.38;100167.13;7366424;19;20797;-64
2022/07/24 03:33:35;;;;;;;0.10;0.10;;;;;;;18.70;75.26;100180.72;7357782;19;20119;-64
2022/07/24 03:36:00;;;;;;;0.10;0.10;;;;;;;18.73;74.89;100187.59;7361903;19;20748;-63
2022/07/24 03:38:26;;;;;;;0.10;0.10;;;;;;;18.75;75.54;100191.00;7362718;19;21628;-63
2022/07/24 03:40:51;;;;;;;0.00;0.00;;;;;;;18.49;74.98;100143.25;7364515;19;20014;-63
2022/07/24 03:43:17;;;;;;;0.00;0.00;;;;;;;18.78;74.55;100188.16;7362877;19;20007;-63
2022/07/24 03:45:43;;;;;;;0.10;0.10;;;;;;;18.78;75.42;100175.78;7365877;19;20018;-63
2022/07/24 03:48:08;;;;;;;0.00;0.00;;;;;;;18.79;75.59;100188.06;7365716;19;20642;-63
2022/07/24 03:50:34;;;;;;;0.08;0.08;;;;;;;18.83;74.85;100184.25;7365686;19;20349;-64
2022/07/24 03:52:59;;;;;;;0.00;0.00;;;;;;;18.72;74.98;100164.75;7365273;19;20019;-63
2022/07/24 03:55:25;;;;;;;0.10;0.10;;;;;;;18.84;74.93;100183.31;7366054;19;20531;-64
2022/07/24 03:57:50;;;;;;;0.00;0.00;;;;;;;18.84;75.36;100179.81;7363888;19;20784;-63
2022/07/24 04:00:17;;;;;;;0.03;0.03;;;;;;;18.83;74.86;100173.69;7365060;19;20006;-63
2022/07/24 04:02:42;;;;;;;0.00;0.00;;;;;;;18.71;74.92;100144.56;7362392;19;20006;-64
2022/07/24 04:05:08;;;;;;;0.00;0.00;;;;;;;18.93;74.39;100189.81;7364792;19;20691;-64
2022/07/24 04:07:37;;;;;;;0.05;0.05;;;;;;;18.94;74.69;100180.91;7364110;19;20011;-63
2022/07/24 04:10:05;;;;;;;0.00;0.00;;;;;;;18.96;74.67;100186.09;7363764;19;20553;-64
2022/07/24 04:12:31;;;;;;;0.10;0.10;;;;;;;18.98;74.33;100181.56;7364312;19;20011;-64
2022/07/24 04:14:56;;;;;;;0.00;0.00;;;;;;;18.91;74.22;100181.97;7360616;19;20014;-63
2022/07/24 04:17:21;;;;;;;0.10;0.10;;;;;;;18.95;73.82;100177.31;7364718;19;20856;-63
2022/07/24 04:19:47;;;;;;;0.10;0.10;;;;;;;18.97;73.91;100201.03;7362287;19;20014;-63
2022/07/24 04:22:12;;;;;;;0.00;0.00;;;;;;;18.95;73.14;100181.75;7364635;19;20010;-63
2022/07/24 04:24:38;;;;;;;0.00;0.00;;;;;;;18.93;73.66;100179.22;7360098;19;20026;-64
2022/07/24 04:27:03;;;;;;;0.10;0.10;;;;;;;18.91;73.15;100176.69;7362237;19;20969;-64
2022/07/24 04:29:28;;;;;;;0.10;0.10;;;;;;;18.89;73.56;100178.56;7363598;19;20017;-63
2022/07/24 04:31:54;;;;;;;0.10;0.10;;;;;;;18.86;73.51;100184.06;7364188;19;20010;-63
2022/07/24 04:34:20;;;;;;;0.00;0.00;;;;;;;18.83;73.79;100175.47;7365139;19;20099;-64
2022/07/24 04:36:46;;;;;;;0.10;0.10;;;;;;;18.79;73.47;100185.41;7363592;19;20015;-64
2022/07/24 04:39:11;;;;;;;0.03;0.03;;;;;;;18.76;74.07;100184.78;7365122;19;20462;-64
2022/07/24 04:41:37;;;;;;;0.00;0.00;;;;;;;18.73;74.42;100188.44;7362325;19;20007;-64
2022/07/24 04:44:02;;;;;;;0.00;0.00;;;;;;;18.68;73.65;100193.19;7363431;19;20010;-63
2022/07/24 04:46:28;;;;;;;0.10;0.10;;;;;;;18.67;74.00;100188.81;7363699;19;20432;-64
2022/07/24 04:48:53;;;;;;;0.00;0.00;;;;;;;18.63;73.95;100185.53;7363705;19;20577;-64
2022/07/24 04:51:18;;;;;;;0.00;0.00;;;;;;;18.61;74.13;100182.13;7361236;19;20027;-63
2022/07/24 04:53:44;;;;;;;0.00;0.00;;;;;;;18.58;73.37;100178.84;7362978;19;20013;-64
2022/07/24 04:56:09;;;;;;;0.00;0.00;;;;;;;18.59;74.04;100185.81;7362122;19;20010;-64
2022/07/24 04:58:35;;;;;;;0.00;0.00;;;;;;;18.58;73.99;100178.84;7360625;19;20029;-63
2022/07/24 05:01:00;;;;;;;0.03;0.03;;;;;;;18.57;74.98;100182.44;7362629;19;20006;-64
2022/07/24 05:03:25;;;;;;;0.00;0.00;;;;;;;18.45;74.79;100155.00;7362794;19;20006;-64
2022/07/24 05:05:51;;;;;;;0.00;0.00;;;;;;;18.58;74.19;100181.47;7363352;19;20046;-64
2022/07/24 05:08:16;;;;;;;0.00;0.00;;;;;;;18.61;74.45;100176.00;7362361;19;20019;-63
2022/07/24 05:10:42;;;;;;;0.10;0.10;;;;;;;18.64;74.33;100171.34;7365721;19;20019;-64
2022/07/24 05:13:07;;;;;;;0.00;0.00;;;;;;;18.62;74.19;100175.06;7361768;19;20352;-63
2022/07/24 05:15:33;;;;;;;0.00;0.00;;;;;;;18.67;73.83;100178.25;7361756;19;20014;-64
2022/07/24 05:17:58;;;;;;;0.00;0.00;;;;;;;18.75;73.74;100178.59;7363001;19;20066;-64
2022/07/24 05:20:23;;;;;;;0.10;0.10;;;;;;;18.79;73.65;100174.81;7363298;19;20010;-63
2022/07/24 05:22:49;;;;;;;0.10;0.10;;;;;;;18.81;73.96;100175.59;7362972;19;20681;-64
2022/07/24 05:25:14;;;;;;;0.10;0.10;;;;;;;18.84;73.79;100172.72;7362574;19;20422;-64
2022/07/24 05:27:40;;;;;;;0.10;0.10;;;;;;;18.85;72.93;100181.50;7360694;19;20011;-63
2022/07/24 05:30:06;;;;;;;0.10;0.10;;;;;;;18.87;73.02;100180.47;7362571;19;20017;-63
2022/07/24 05:32:31;;;;;;;0.00;0.00;;;;;;;18.87;73.19;100174.34;7360102;19;20382;-64
2022/07/24 05:34:57;;;;;;;0.10;0.10;;;;;;;18.88;73.58;100176.03;7362354;19;20006;-64
2022/07/24 05:37:22;;;;;;;0.00;0.00;;;;;;;18.83;72.70;100163.09;7361486;19;20489;-63
2022/07/24 05:39:48;;;;;;;0.00;0.00;;;;;;;18.87;73.27;100164.59;7363135;19;20014;-63
2022/07/24 05:42:13;;;;;;;0.10;0.10;;;;;;;18.90;72.79;100169.66;7360547;19;20015;-64
2022/07/24 05:44:38;;;;;;;0.10;0.10;;;;;;;18.90;72.99;100164.38;7362697;19;20014;-63
2022/07/24 05:47:04;;;;;;;0.00;0.00;;;;;;;18.91;72.88;100166.09;7359334;19;20042;-64
2022/07/24 05:49:30;;;;;;;0.10;0.10;;;;;;;18.92;72.64;100143.97;7363061;19;20014;-64
2022/07/24 05:51:55;;;;;;;0.00;0.00;;;;;;;18.95;72.77;100150.00;7360300;19;20975;-64
2022/07/24 05:54:21;;;;;;;0.05;0.05;;;;;;;18.97;72.64;100156.06;7363740;19;20014;-64
2022/07/24 05:56:46;;;;;;;0.10;0.10;;;;;;;18.99;72.71;100146.22;7358983;19;20050;-63
2022/07/24 05:59:12;;;;;;;0.08;0.08;;;;;;;19.00;72.00;100147.91;7360521;19;20053;-64
2022/07/24 06:01:37;;;;;;;0.10;0.10;;;;;;;19.00;72.24;100137.31;7361164;19;20014;-63
2022/07/24 06:04:03;;;;;;;0.10;0.10;;;;;;;19.00;72.03;100137.31;7363398;19;20025;-63
2022/07/24 06:06:28;;;;;;;0.03;0.03;;;;;;;19.07;72.02;100150.06;7363251;19;20101;-64
2022/07/24 06:08:53;;;;;;;0.00;0.00;;;;;;;19.10;71.65;100138.41;7362226;19;20114;-63
2022/07/24 06:11:20;;;;;;;0.00;0.00;;;;;;;19.12;71.64;100136.50;7361194;19;20014;-64
2022/07/24 06:13:45;;;;;;;0.00;0.00;;;;;;;19.14;71.90;100131.97;7361094;19;20076;-64
2022/07/24 06:16:11;;;;;;;0.10;0.10;;;;;;;19.16;71.51;100130.06;7363582;19;20017;-64
2022/07/24 06:18:36;;;;;;;0.10;0.10;;;;;;;19.19;71.34;100133.34;7361554;19;20091;-64
2022/07/24 06:21:02;;;;;;;0.00;0.00;;;;;;;19.24;71.02;100130.38;7363194;19;20041;-63
2022/07/24 06:23:27;;;;;;;0.10;0.10;;;;;;;19.26;71.44;100125.84;7360844;19;20012;-63
2022/07/24 06:25:52;;;;;;;0.00;0.00;;;;;;;19.30;70.89;100119.38;7364085;19;20098;-64
2022/07/24 06:28:18;;;;;;;0.05;0.05;;;;;;;19.30;70.77;100111.44;7361669;19;20021;-64
2022/07/24 06:30:43;;;;;;;0.10;0.10;;;;;;;19.35;70.80;100111.97;7362827;19;20014;-64
2022/07/24 06:33:09;;;;;;;0.10;0.10;;;;;;;19.37;70.58;100102.13;7359914;19;20010;-64
2022/07/24 06:35:34;;;;;;;0.10;0.10;;;;;;;19.44;70.36;100111.34;7360112;19;20407;-64
2022/07/24 06:38:00;;;;;;;0.10;0.10;;;;;;;19.49;70.56;100111.03;7361698;19;20044;-63
2022/07/24 06:40:26;;;;;;;0.10;0.10;;;;;;;19.44;69.91;100100.75;7363366;19;20041;-64
2022/07/24 06:42:52;;;;;;;0.10;0.10;;;;;;;19.57;69.28;100110.50;7359936;19;20040;-63
2022/07/24 06:45:17;;;;;;;0.00;0.00;;;;;;;19.57;69.33;100110.50;7362198;19;20118;-64
2022/07/24 06:47:43;;;;;;;0.00;0.00;;;;;;;19.66;69.77;100125.75;7358443;19;20048;-64
2022/07/24 06:50:11;;;;;;;0.00;0.00;;;;;;;19.59;69.64;100092.69;7355786;19;20018;-63
2022/07/24 06:52:36;;;;;;;0.00;0.00;;;;;;;19.74;69.20;100119.94;7359763;19;20040;-64
2022/07/24 06:55:02;;;;;;;0.10;0.10;;;;;;;19.78;68.65;100111.69;7362563;19;20015;-64
2022/07/24 06:57:28;;;;;;;0.00;0.00;;;;;;;19.82;68.70;100131.72;7358950;19;20007;-63
2022/07/24 06:59:54;;;;;;;0.03;0.03;;;;;;;19.85;68.56;100112.09;7362059;19;22172;-63
2022/07/24 07:02:21;;;;;;;0.00;0.00;;;;;;;19.91;68.92;100114.28;7359775;19;20014;-63
2022/07/24 07:04:47;;;;;;;0.10;0.10;;;;;;;19.92;68.42;100111.56;7360794;19;20030;-63
2022/07/24 07:07:14;;;;;;;0.10;0.10;;;;;;;19.98;67.72;100114.72;7360612;19;20679;-64
2022/07/24 07:09:39;;;;;;;0.10;0.10;;;;;;;19.99;67.33;100113.75;7361373;19;20014;-64
2022/07/24 07:12:04;;;;;;;0.00;0.00;;;;;;;20.04;67.95;100115.13;7358164;19;20508;-63
2022/07/24 07:14:30;;;;;;;0.10;0.10;;;;;;;20.07;67.23;100104.31;7362969;19;20070;-64
2022/07/24 07:16:55;;;;;;;0.03;0.03;;;;;;;20.12;67.71;100106.59;7364165;19;20010;-63
2022/07/24 07:19:21;;;;;;;0.10;0.10;;;;;;;20.15;67.30;100101.09;7366255;19;20010;-63
2022/07/24 07:21:46;;;;;;;0.10;0.10;;;;;;;20.21;67.91;100114.75;7368761;19;20454;-64
2022/07/24 07:24:12;;;;;;;0.10;0.10;;;;;;;20.21;66.52;100095.34;7366584;19;20014;-63
2022/07/24 07:26:37;;;;;;;0.10;0.10;;;;;;;20.32;66.56;100092.75;7368311;19;20006;-63
2022/07/24 07:29:02;;;;;;;0.00;0.00;;;;;;;20.35;66.75;100097.84;7363871;19;20653;-63
2022/07/24 07:31:28;;;;;;;0.00;0.00;;;;;;;20.43;66.51;100100.81;7366280;19;20489;-64
2022/07/24 07:33:54;;;;;;;0.05;0.05;;;;;;;20.50;67.10;100111.00;7366130;19;20086;-63
2022/07/24 07:36:19;;;;;;;0.10;0.10;;;;;;;20.56;66.20;100105.22;7368372;19;20046;-63
2022/07/24 07:38:45;;;;;;;0.10;0.10;;;;;;;20.62;65.87;100100.31;7366621;19;22904;-63
2022/07/24 07:41:10;;;;;;;0.10;0.10;;;;;;;20.69;66.11;100095.41;7367191;19;20340;-63
2022/07/24 07:43:36;;;;;;;0.10;0.10;;;;;;;20.76;65.22;100101.94;7366612;19;20018;-63
2022/07/24 07:46:01;;;;;;;0.03;0.03;;;;;;;20.82;65.81;100087.38;7367842;19;20015;-63
2022/07/24 07:48:28;;;;;;;0.08;0.08;;;;;;;20.87;65.61;100086.06;7366925;19;20011;-63
2022/07/24 07:50:53;;;;;;;0.00;0.00;;;;;;;20.81;65.33;100059.97;7366796;19;20769;-63
2022/07/24 07:53:19;;;;;;;0.00;0.00;;;;;;;21.03;65.47;100080.44;7365328;19;21496;-64
2022/07/24 07:55:48;;;;;;;0.10;0.10;;;;;;;21.12;64.71;100081.53;7364212;19;20070;-63
2022/07/24 07:58:13;;;;;;;0.10;0.10;;;;;;;21.23;64.26;100081.56;7365387;19;20018;-64
2022/07/24 08:00:39;;;;;;;0.10;0.10;;;;;;;21.33;64.51;100087.88;7358877;19;20010;-63
2022/07/24 08:03:04;;;;;;;0.10;0.10;;;;;;;21.41;64.21;100079.34;7360934;19;20033;-64
2022/07/24 08:05:30;;;;;;;0.10;0.10;;;;;;;21.42;64.30;100073.91;7361773;19;20585;-63
2022/07/24 08:07:55;;;;;;;0.10;0.10;;;;;;;21.61;63.24;100083.09;7360731;19;20026;-63
2022/07/24 08:10:21;;;;;;;0.10;0.10;;;;;;;21.68;64.31;100076.31;7359662;19;20010;-63
2022/07/24 08:12:47;;;;;;;0.00;0.00;;;;;;;21.68;63.39;100063.03;7365898;19;20021;-64
2022/07/24 08:15:13;;;;;;;0.10;0.10;;;;;;;21.86;63.13;100082.84;7365865;19;21050;-63
2022/07/24 08:17:38;;;;;;;0.03;0.03;;;;;;;21.97;62.52;100069.53;7367803;19;20038;-64
2022/07/24 08:20:05;;;;;;;0.10;0.10;;;;;;;22.12;63.28;100087.91;7365030;19;20017;-63
2022/07/24 08:22:30;;;;;;;0.10;0.10;;;;;;;22.17;61.64;100064.47;7367444;19;20050;-64
2022/07/24 08:24:56;;;;;;;0.10;0.10;;;;;;;22.26;61.34;100058.41;7364001;19;20371;-64
2022/07/24 08:27:21;;;;;;;0.00;0.00;;;;;;;22.31;60.54;100060.69;7365678;19;20037;-63
2022/07/24 08:29:47;;;;;;;0.10;0.10;;;;;;;22.35;60.97;100062.09;7362448;19;20007;-64
2022/07/24 08:32:12;;;;;;;0.10;0.10;;;;;;;22.41;60.11;100049.16;7364112;19;20027;-63
2022/07/24 08:34:37;;;;;;;0.10;0.10;;;;;;;22.50;59.68;100055.50;7365205;19;20074;-64
2022/07/24 08:37:03;;;;;;;0.10;0.10;;;;;;;22.59;59.22;100064.56;7366063;19;20015;-64
2022/07/24 08:39:28;;;;;;;0.00;0.00;;;;;;;22.66;58.94;100063.94;7364423;19;20011;-63
2022/07/24 08:41:54;;;;;;;0.10;0.10;;;;;;;22.61;58.02;100028.88;7365670;19;20014;-63
2022/07/24 08:44:19;;;;;;;0.10;0.10;;;;;;;22.71;57.83;100058.22;7364244;19;20006;-64
2022/07/24 08:46:45;;;;;;;0.10;0.10;;;;;;;22.70;58.63;100057.38;7365079;19;20510;-63
2022/07/24 08:49:14;;;;;;;0.10;0.10;;;;;;;22.73;58.99;100050.94;7364458;19;20006;-63
2022/07/24 08:51:42;;;;;;;0.10;0.10;;;;;;;22.77;58.63;100044.41;7362920;19;20010;-63
2022/07/24 08:54:09;;;;;;;0.10;0.10;;;;;;;22.80;58.57;100038.81;7366264;19;20014;-64
2022/07/24 08:56:37;;;;;;;0.10;0.10;;;;;;;22.86;58.35;100040.97;7365627;19;20015;-64
2022/07/24 08:59:03;;;;;;;0.10;0.10;;;;;;;22.93;58.91;100042.16;7363995;19;20027;-64
2022/07/24 09:01:29;;;;;;;0.10;0.10;;;;;;;22.97;58.04;100040.94;7365647;19;20439;-64
2022/07/24 09:03:54;;;;;;;0.10;0.10;;;;;;;23.13;58.26;100055.59;7361093;19;20913;-64
2022/07/24 09:06:21;;;;;;;0.00;0.00;;;;;;;23.22;56.59;100046.84;7364455;19;20017;-64
2022/07/24 09:09:03;;;;;;;0.10;0.10;;;;;;;23.32;58.29;100034.41;7362750;19;20537;-64
2022/07/24 09:11:29;;;;;;;0.10;0.10;;;;;;;23.31;57.13;100030.03;7364037;19;20006;-64
2022/07/24 09:16:46;;;;;;;0.10;0.10;;;;;;;23.41;56.03;100025.59;7261709;19;2004384;-64
2022/07/24 09:19:13;;;;;;;0.10;0.10;;;;;;;23.47;56.53;100025.09;7366447;19;20446;-64
2022/07/24 09:21:40;;;;;;;0.10;0.10;;;;;;;23.55;56.05;100017.25;7363221;19;20089;-63
2022/07/24 09:24:18;;;;;;;0.10;0.10;;;;;;;23.68;57.59;100005.53;7364911;19;20022;-63
2022/07/24 09:26:55;;;;;;;0.10;0.10;;;;;;;23.79;57.03;100008.09;7363294;19;20122;-64
2022/07/24 09:29:23;;;;;;;0.10;0.10;;;;;;;23.87;56.00;100005.56;7361915;19;20025;-64
2022/07/24 09:32:00;;;;;;;0.10;0.10;;;;;;;24.05;56.39;100006.59;7364003;19;20037;-64
2022/07/24 09:34:29;;;;;;;0.10;0.10;;;;;;;24.34;54.60;99998.63;7362172;19;20035;-63
2022/07/24 09:37:00;;;;;;;0.10;0.10;;;;;;;24.58;54.57;99987.56;7358180;19;20006;-64
2022/07/24 09:39:27;;;;;;;0.10;0.10;;;;;;;24.78;53.55;99995.50;7355007;19;20007;-64
2022/07/24 09:41:55;;;;;;;0.10;0.10;;;;;;;25.04;53.35;99983.25;7362888;19;21258;-64
2022/07/24 09:44:23;;;;;;;0.10;0.10;;;;;;;25.24;52.62;99986.72;7359497;19;20009;-63
2022/07/24 09:46:56;;;;;;;0.00;0.00;;;;;;;25.54;54.32;99972.22;7360986;19;20007;-64
2022/07/24 09:49:23;;;;;;;0.10;0.10;;;;;;;25.67;53.43;99952.31;7357524;19;20002;-63
2022/07/24 09:52:10;;;;;;;0.10;0.10;;;;;;;26.10;54.06;99954.28;7359401;19;20711;-63
2022/07/24 09:54:49;;;;;;;0.10;0.10;;;;;;;26.35;52.19;99958.88;7258307;19;2004377;-64
2022/07/24 09:57:29;;;;;;;0.10;0.10;;;;;;;26.65;52.17;99957.63;7357727;19;20022;-63
2022/07/24 10:00:04;;;;;;;0.10;0.10;;;;;;;26.89;50.04;99961.47;7358437;19;20014;-63
2022/07/24 10:02:33;;;;;;;0.10;0.10;;;;;;;27.01;48.79;99946.81;7359615;19;20014;-63
2022/07/24 10:05:01;;;;;;;0.10;0.10;;;;;;;27.22;47.33;99950.97;7359116;19;20123;-64
2022/07/24 10:07:27;;;;;;;0.10;0.10;;;;;;;27.39;47.15;99928.59;7358042;19;20021;-64
2022/07/24 10:09:59;;;;;;;0.10;0.10;;;;;;;27.60;47.78;99942.41;7351230;19;20726;-63
2022/07/24 10:12:26;;;;;;;0.10;0.10;;;;;;;27.71;46.45;99933.25;7359350;19;20041;-64
2022/07/24 10:14:54;;;;;;;0.00;0.00;;;;;;;27.91;46.63;99940.00;7362607;19;20053;-63
2022/07/24 10:17:20;;;;;;;0.10;0.10;;;;;;;28.12;45.76;99931.47;7361006;19;20085;-64
2022/07/24 10:19:47;;;;;;;0.10;0.10;;;;;;;28.43;45.28;99912.03;7361080;19;20103;-64
2022/07/24 10:22:15;;;;;;;0.10;0.10;;;;;;;28.72;44.37;99916.03;7356826;19;20014;-63
2022/07/24 10:25:18;;;;;;;0.10;0.10;;;;;;;29.16;48.51;99928.03;7358779;19;20025;-63
2022/07/24 10:27:51;;;;;;;0.10;0.10;;;;;;;29.39;45.03;99914.63;7252642;19;2004208;-64
2022/07/24 10:30:17;;;;;;;0.10;0.10;;;;;;;29.58;44.78;99910.69;7353454;19;20466;-63
2022/07/24 10:32:45;;;;;;;0.10;0.10;;;;;;;29.92;43.00;99918.41;7357518;19;20027;-64
2022/07/24 10:35:19;;;;;;;0.10;0.10;;;;;;;30.16;44.54;99909.34;7357716;19;20034;-64
2022/07/24 10:38:08;;;;;;;0.00;0.00;;;;;;;30.34;44.15;99909.00;7357734;19;20853;-63
2022/07/24 10:40:54;;;;;;;0.10;0.10;;;;;;;30.36;41.12;99895.34;7357537;19;20470;-64
2022/07/24 10:43:21;;;;;;;0.10;0.10;;;;;;;30.47;40.69;99900.31;7357306;19;20596;-63
2022/07/24 10:45:53;;;;;;;;;;;;;;;30.66;46.17;99891.66;7358369;19;20034;-63
2022/07/24 10:48:21;;;;;;;0.10;0.10;;;;;;;30.68;40.91;99897.72;7356676;19;19918;-63
2022/07/24 10:50:59;;;;;;;0.10;0.10;;;;;;;30.72;41.89;99896.38;7364649;19;20030;-63
2022/07/24 10:53:26;;;;;;;0.10;0.10;;;;;;;30.66;39.67;99886.28;7363454;19;20037;-64
2022/07/24 10:55:51;;;;;;;;;;;;;;;30.80;43.84;99887.34;7366358;19;20042;-63
2022/07/24 10:58:17;;;;;;;0.10;0.10;;;;;;;30.59;39.68;99874.56;7358089;19;19931;-63
2022/07/24 11:00:50;;;;;;;0.10;0.10;;;;;;;30.84;41.07;99872.47;7360468;19;20010;-63
2022/07/24 11:03:24;;;;;;;0.10;0.10;;;;;;;31.02;40.86;99874.78;7361871;19;20014;-63
2022/07/24 11:06:09;;;;;;;0.10;0.10;;;;;;;31.17;41.93;99866.66;7363889;19;20027;-64
2022/07/24 11:08:48;;;;;;;0.10;0.10;;;;;;;31.15;39.67;99852.56;7355317;19;20030;-63
2022/07/24 11:11:21;;;;;;;0.08;0.08;;;;;;;31.26;40.28;99861.00;7361690;19;20010;-63
2022/07/24 11:13:52;;;;;;;0.10;0.10;;;;;;;31.25;39.34;99870.09;7367903;19;20569;-63
2022/07/24 11:16:23;;;;;;;0.10;0.10;;;;;;;31.14;38.95;99873.28;7360109;19;20009;-63
2022/07/24 11:18:54;;;;;;;0.10;0.10;;;;;;;30.96;39.21;99851.25;7361034;19;20011;-63
2022/07/24 11:21:37;;;;;;;0.10;0.10;;;;;;;30.68;40.51;99849.22;7364461;19;20113;-63
2022/07/24 11:24:20;;;;;;;0.10;0.10;;;;;;;30.41;41.24;99839.88;7362855;19;20093;-63
2022/07/24 11:26:51;;;;;;;0.10;0.10;;;;;;;30.12;40.21;99838.00;7361191;19;20557;-63
2022/07/24 11:29:22;;;;;;;0.10;0.10;;;;;;;29.98;39.85;99834.22;7351653;19;20069;-63